createdAt,value
2023-01-10T00:00:14.851Z,101558.68
2023-01-10T00:02:43.347Z,101558.03
2023-01-10T00:05:11.245Z,101564.88
2023-01-10T00:07:39.751Z,101568.91
2023-01-10T00:10:09.392Z,101577.64
2023-01-10T00:15:48.562Z,101568.02
2023-01-10T00:18:17.035Z,101563.98
2023-01-10T00:20:49.844Z,101560.40
2023-01-10T00:23:18.657Z,101553.27
2023-01-10T00:28:30.099Z,101556.09
2023-01-10T00:31:17.356Z,101553.64
2023-01-10T00:33:46.967Z,101558.50
2023-01-10T00:41:56.557Z,101563.92
2023-01-10T00:44:24.407Z,101557.94
2023-01-10T00:46:52.661Z,101539.90
2023-01-10T00:49:21.740Z,101542.69
2023-01-10T00:51:49.970Z,101550.27
2023-01-10T00:54:17.778Z,101550.05
2023-01-10T00:56:51.429Z,101543.70
2023-01-10T00:59:18.882Z,101540.34
2023-01-10T01:01:47.123Z,101538.26
2023-01-10T01:04:17.293Z,101536.66
2023-01-10T01:06:46.136Z,101534.88
2023-01-10T01:09:18.980Z,101532.92
2023-01-10T01:11:50.622Z,101538.67
2023-01-10T01:14:18.109Z,101541.83
2023-01-10T01:16:45.671Z,101541.42
2023-01-10T01:19:14.226Z,101530.55
2023-01-10T01:21:45.103Z,101531.71
2023-01-10T01:24:12.914Z,101529.54
2023-01-10T01:26:42.908Z,101531.02
2023-01-10T01:29:11.013Z,101523.81
2023-01-10T01:31:38.334Z,101508.64
2023-01-10T01:36:50.554Z,101496.64
2023-01-10T01:39:18.066Z,101485.80
2023-01-10T01:42:03.197Z,101475.50
2023-01-10T01:44:38.036Z,101469.54
2023-01-10T01:47:13.664Z,101461.50
2023-01-10T01:49:43.219Z,101460.86
2023-01-10T01:52:40.196Z,101452.18
2023-01-10T01:55:09.173Z,101438.73
2023-01-10T02:00:19.541Z,101418.78
2023-01-10T02:03:01.743Z,101415.64
2023-01-10T02:05:30.804Z,101402.97
2023-01-10T02:08:02.460Z,101397.79
2023-01-10T02:10:36.196Z,101386.65
2023-01-10T02:15:47.028Z,101380.83
2023-01-10T02:18:15.014Z,101377.37
2023-01-10T02:21:02.035Z,101359.41
2023-01-10T02:24:12.878Z,101353.09
2023-01-10T02:27:03.593Z,101343.30
2023-01-10T02:29:57.250Z,101329.98
2023-01-10T02:33:05.464Z,101326.65
2023-01-10T02:35:35.681Z,101323.10
2023-01-10T02:38:19.136Z,101314.81
2023-01-10T02:41:28.412Z,101300.08
2023-01-10T02:44:01.775Z,101301.73
2023-01-10T02:46:29.813Z,101294.25
2023-01-10T02:48:57.235Z,101291.24
2023-01-10T02:54:24.385Z,101283.91
2023-01-10T02:57:32.311Z,101272.36
2023-01-10T03:03:14.205Z,101254.56
2023-01-10T03:06:29.721Z,101247.48
2023-01-10T03:09:00.084Z,101244.70
2023-01-10T03:11:43.621Z,101235.23
2023-01-10T03:14:28.139Z,101231.35
2023-01-10T03:17:05.091Z,101220.84
2023-01-10T03:19:36.701Z,101222.39
2023-01-10T03:22:10.260Z,101218.17
2023-01-10T03:24:43.296Z,101223.23
2023-01-10T03:27:53.092Z,101223.54
2023-01-10T03:30:57.599Z,101228.23
2023-01-10T03:33:29.452Z,101228.98
2023-01-10T03:36:35.875Z,101227.58
2023-01-10T03:39:58.045Z,101235.08
2023-01-10T03:46:47.380Z,101248.11
2023-01-10T03:49:17.788Z,101240.95
2023-01-10T03:54:29.290Z,101245.80
2023-01-10T03:56:57.702Z,101242.33
2023-01-10T03:59:26.686Z,101242.96
2023-01-10T04:01:56.514Z,101243.98
2023-01-10T04:04:24.200Z,101243.79
2023-01-10T04:06:55.165Z,101254.30
2023-01-10T04:09:26.301Z,101257.92
2023-01-10T04:15:03.909Z,101259.45
2023-01-10T04:17:39.939Z,101258.88
2023-01-10T04:20:09.414Z,101261.34
2023-01-10T04:22:37.238Z,101265.48
2023-01-10T04:25:05.759Z,101267.15
2023-01-10T04:30:14.753Z,101267.56
2023-01-10T04:32:46.643Z,101270.64
2023-01-10T04:35:14.491Z,101270.77
2023-01-10T04:37:48.795Z,101266.48
2023-01-10T04:40:20.368Z,101269.80
2023-01-10T04:42:49.801Z,101281.27
2023-01-10T04:45:20.847Z,101282.92
2023-01-10T04:47:52.405Z,101285.92
2023-01-10T04:50:19.900Z,101288.91
2023-01-10T04:52:49.978Z,101287.75
2023-01-10T04:55:17.622Z,101298.84
2023-01-10T04:57:47.055Z,101301.22
2023-01-10T05:00:15.918Z,101302.38
2023-01-10T05:02:44.860Z,101312.95
2023-01-10T05:05:15.730Z,101315.47
2023-01-10T05:07:49.111Z,101319.96
2023-01-10T05:10:17.470Z,101316.77
2023-01-10T05:12:51.864Z,101309.38
2023-01-10T05:15:23.351Z,101313.18
2023-01-10T05:20:46.250Z,101306.79
2023-01-10T05:23:17.028Z,101308.56
2023-01-10T05:25:45.097Z,101306.65
2023-01-10T05:30:57.417Z,101314.49
2023-01-10T05:33:32.159Z,101320.62
2023-01-10T05:36:05.634Z,101316.95
2023-01-10T05:39:05.223Z,101308.44
2023-01-10T05:41:34.572Z,101306.41
2023-01-10T05:44:02.392Z,101301.68
2023-01-10T05:49:24.524Z,101292.13
2023-01-10T05:52:20.329Z,101287.73
2023-01-10T05:54:49.634Z,101285.16
2023-01-10T05:57:19.990Z,101255.80
2023-01-10T05:59:47.544Z,101132.40
2023-01-10T06:02:15.471Z,101116.09
2023-01-10T06:04:43.976Z,101097.27
2023-01-10T06:07:11.313Z,101078.45
2023-01-10T06:09:43.004Z,101068.17
2023-01-10T06:12:10.503Z,101067.23
2023-01-10T06:14:38.386Z,101063.88
2023-01-10T06:17:13.310Z,101053.60
2023-01-10T06:20:09.950Z,101049.05
2023-01-10T06:26:33.486Z,101036.02
2023-01-10T06:29:01.456Z,101032.21
2023-01-10T06:38:01.222Z,101012.64
2023-01-10T06:40:30.233Z,101013.77
2023-01-10T06:43:00.489Z,101007.17
2023-01-10T06:46:20.378Z,100990.23
2023-01-10T06:48:49.427Z,100989.21
2023-01-10T06:51:21.225Z,101012.88
2023-01-10T06:53:48.724Z,101085.45
2023-01-10T06:56:46.103Z,101067.25
2023-01-10T06:59:07.239Z,101048.78
2023-01-10T07:01:36.038Z,101029.33
2023-01-10T07:04:31.494Z,101015.45
2023-01-10T07:06:59.288Z,101007.09
2023-01-10T07:09:26.887Z,100993.88
2023-01-10T07:16:30.614Z,100962.96
2023-01-10T07:19:00.145Z,100908.04
2023-01-10T07:24:13.086Z,100871.98
2023-01-10T07:26:41.506Z,100866.91
2023-01-10T07:29:32.338Z,100855.69
2023-01-10T07:32:01.555Z,100853.89
2023-01-10T12:23:08.437Z,100685.84
2023-01-10T12:25:53.215Z,100697.37
2023-01-10T12:29:14.276Z,100693.23
2023-01-10T12:31:41.801Z,100694.16
2023-01-10T12:34:50.110Z,100695.27
2023-01-10T12:37:24.871Z,100703.73
2023-01-10T12:39:55.670Z,100713.11
2023-01-10T12:43:16.789Z,100703.98
2023-01-10T12:45:56.310Z,100706.91
2023-01-10T12:49:01.363Z,100711.31
2023-01-10T12:51:28.589Z,100702.05
2023-01-10T12:54:06.843Z,100700.02
2023-01-10T12:56:34.331Z,100696.54
2023-01-10T12:59:08.186Z,100696.66
2023-01-10T13:01:48.369Z,100694.21
2023-01-10T13:04:19.048Z,100693.66
2023-01-10T13:06:48.244Z,100699.17
2023-01-10T13:09:27.201Z,100701.77
2023-01-10T13:12:06.589Z,100697.28
2023-01-10T13:14:41.607Z,100705.87
2023-01-10T13:17:32.117Z,100710.55
2023-01-10T13:20:19.099Z,100710.16
2023-01-10T13:22:48.050Z,100709.48
2023-01-10T13:25:38.415Z,100710.86
2023-01-10T13:28:08.357Z,100715.39
2023-01-10T13:30:37.584Z,100719.63
2023-01-10T13:33:06.287Z,100726.04
2023-01-10T13:35:43.984Z,100733.41
2023-01-10T13:38:19.364Z,100733.48
2023-01-10T13:41:10.556Z,100729.59
2023-01-10T13:43:40.252Z,100734.28
2023-01-10T13:46:24.656Z,100733.08
2023-01-10T13:48:54.838Z,100733.95
2023-01-10T13:51:22.328Z,100740.95
2023-01-10T13:53:52.116Z,100740.75
2023-01-10T13:56:43.270Z,100742.98
2023-01-10T13:59:52.787Z,100739.71
2023-01-10T14:02:36.039Z,100744.27
2023-01-10T14:05:05.265Z,100753.02
2023-01-10T14:07:47.763Z,100764.95
2023-01-10T14:10:20.000Z,100776.45
2023-01-10T14:12:52.189Z,100786.42
2023-01-10T14:15:37.191Z,100797.77
2023-01-10T14:18:08.830Z,100805.91
2023-01-10T14:20:36.288Z,100814.13
2023-01-10T14:23:20.292Z,100815.61
2023-01-10T14:25:52.929Z,100819.52
2023-01-10T14:28:28.510Z,100829.47
2023-01-10T14:31:01.536Z,100835.72
2023-01-10T14:33:40.992Z,100845.59
2023-01-10T14:36:10.495Z,100855.30
2023-01-10T14:38:38.644Z,100843.34
2023-01-10T14:41:07.710Z,100844.90
2023-01-10T14:43:56.921Z,100837.27
2023-01-10T14:46:48.984Z,100827.77
2023-01-10T14:49:51.618Z,100827.70
2023-01-10T14:52:29.650Z,100833.04
2023-01-10T14:55:09.401Z,100820.08
2023-01-10T14:57:36.787Z,100820.92
2023-01-10T15:00:12.677Z,100819.34
2023-01-10T15:02:44.714Z,100826.59
2023-01-10T15:05:27.935Z,100828.05
2023-01-10T15:07:55.825Z,100836.05
2023-01-10T15:10:26.025Z,100838.44
2023-01-10T15:12:55.114Z,100848.33
2023-01-10T15:15:33.791Z,100846.30
2023-01-10T15:18:03.221Z,100852.84
2023-01-10T15:20:30.750Z,100855.85
2023-01-10T15:23:01.616Z,100860.81
2023-01-10T15:25:38.187Z,100856.77
2023-01-10T15:28:12.074Z,100856.85
2023-01-10T15:30:39.582Z,100848.65
2023-01-10T15:33:11.996Z,100850.27
2023-01-10T15:35:40.247Z,100853.36
2023-01-10T15:38:08.813Z,100853.73
2023-01-10T15:40:37.547Z,100856.13
2023-01-10T15:43:23.647Z,100868.05
2023-01-10T15:45:51.876Z,100874.23
2023-01-10T15:48:34.725Z,100889.33
2023-01-10T15:51:29.078Z,100899.42
2023-01-10T15:54:22.679Z,100893.81
2023-01-10T15:57:14.336Z,100895.50
2023-01-10T15:59:46.540Z,100894.08
2023-01-10T16:02:32.571Z,100897.05
2023-01-10T16:05:12.982Z,100891.69
2023-01-10T16:07:45.778Z,100892.73
2023-01-10T16:10:26.044Z,100887.44
2023-01-10T16:13:13.739Z,100881.36
2023-01-10T16:15:42.477Z,100873.17
2023-01-10T16:18:10.941Z,100872.86
2023-01-10T16:20:40.775Z,100867.29
2023-01-10T16:23:32.626Z,100870.50
2023-01-10T16:26:01.271Z,100857.15
2023-01-10T16:28:31.128Z,100855.60
2023-01-10T16:30:58.944Z,100865.48
2023-01-10T16:33:28.161Z,100866.80
2023-01-10T16:35:57.252Z,100863.97
2023-01-10T16:38:28.631Z,100866.02
2023-01-10T16:41:26.089Z,100864.09
2023-01-10T16:43:54.166Z,100862.06
2023-01-10T16:46:22.391Z,100864.32
2023-01-10T16:48:52.763Z,100868.27
2023-01-10T16:51:31.477Z,100868.60
2023-01-10T16:53:58.796Z,100875.17
2023-01-10T16:56:28.406Z,100868.09
2023-01-10T16:58:59.760Z,100860.85
2023-01-10T17:01:31.707Z,100869.25
2023-01-10T17:03:59.047Z,100870.23
2023-01-10T17:06:26.404Z,100868.61
2023-01-10T17:08:54.569Z,100865.81
2023-01-10T17:11:26.625Z,100864.39
2023-01-10T17:13:57.592Z,100868.41
2023-01-10T17:16:27.683Z,100861.98
2023-01-10T17:18:55.551Z,100849.61
2023-01-10T17:21:23.249Z,100844.35
2023-01-10T17:23:50.777Z,100855.11
2023-01-10T17:26:18.913Z,100848.11
2023-01-10T17:28:50.070Z,100851.70
2023-01-10T17:31:20.047Z,100859.73
2023-01-10T17:33:53.509Z,100861.91
2023-01-10T17:36:30.307Z,100863.88
2023-01-10T17:38:57.589Z,100862.39
2023-01-10T17:41:34.249Z,100862.68
2023-01-10T17:44:02.874Z,100874.55
2023-01-10T17:46:30.188Z,100869.04
2023-01-10T17:48:57.629Z,100875.73
2023-01-10T17:51:25.600Z,100879.48
2023-01-10T17:53:57.829Z,100871.54
2023-01-10T17:56:25.467Z,100865.39
2023-01-10T17:58:55.353Z,100861.24
2023-01-10T18:01:28.501Z,100859.14
2023-01-10T18:07:57.206Z,100857.27
2023-01-10T18:15:48.526Z,100875.44
2023-01-10T18:18:16.968Z,100876.19
2023-01-10T18:20:50.261Z,100876.20
2023-01-10T18:23:49.440Z,100878.33
2023-01-10T18:26:16.877Z,100882.56
2023-01-10T18:28:44.827Z,100892.41
2023-01-10T18:31:18.900Z,100894.98
2023-01-10T18:33:49.560Z,100887.23
2023-01-10T18:36:22.415Z,100880.98
2023-01-10T18:38:54.646Z,100890.52
2023-01-10T18:41:25.840Z,100901.23
2023-01-10T18:44:02.251Z,100904.30
2023-01-10T18:46:31.537Z,100913.80
2023-01-10T18:49:01.163Z,100914.73
2023-01-10T18:51:28.796Z,100926.27
2023-01-10T18:53:56.596Z,100932.08
2023-01-10T18:56:24.190Z,100933.55
2023-01-10T18:58:52.510Z,100938.48
2023-01-10T19:01:22.464Z,100941.21
2023-01-10T19:03:52.802Z,100943.40
2023-01-10T19:06:23.268Z,100950.95
2023-01-10T19:08:51.671Z,100960.35
2023-01-10T19:11:19.676Z,100964.78
2023-01-10T19:16:35.651Z,100974.44
2023-01-10T19:19:06.916Z,100990.17
2023-01-10T19:21:34.595Z,100999.11
2023-01-10T19:24:05.990Z,100986.31
2023-01-10T19:26:35.843Z,100989.39
2023-01-10T19:29:11.089Z,101000.23
2023-01-10T19:34:22.536Z,101010.29
2023-01-10T19:36:49.988Z,101010.89
2023-01-10T19:39:18.895Z,101016.14
2023-01-10T19:43:03.591Z,101033.21
2023-01-10T19:45:30.958Z,101057.20
2023-01-10T19:47:59.118Z,101057.67
2023-01-10T19:50:26.647Z,101068.71
2023-01-10T19:52:54.625Z,101071.60
2023-01-10T19:55:22.409Z,101072.74
2023-01-10T19:57:49.804Z,101080.31
2023-01-10T20:00:25.733Z,101086.59
2023-01-10T20:02:58.004Z,101082.77
2023-01-10T20:05:26.075Z,101097.70
2023-01-10T20:07:53.709Z,101098.94
2023-01-10T20:10:21.436Z,101100.37
2023-01-10T20:12:49.458Z,101106.75
2023-01-10T20:15:17.296Z,101115.18
2023-01-10T20:17:45.640Z,101124.30
2023-01-10T20:20:15.393Z,101133.24
2023-01-10T20:22:43.015Z,101138.69
2023-01-10T20:25:13.073Z,101148.83
2023-01-10T20:27:44.075Z,101152.73
2023-01-10T20:30:14.448Z,101164.42
2023-01-10T20:32:45.768Z,101183.33
2023-01-10T20:35:14.425Z,101187.56
2023-01-10T20:37:42.255Z,101187.95
2023-01-10T20:40:35.044Z,101193.70
2023-01-10T20:43:02.389Z,101193.02
2023-01-10T20:45:32.576Z,101201.15
2023-01-10T20:48:51.179Z,101214.47
2023-01-10T20:51:22.217Z,101220.17
2023-01-10T20:53:49.687Z,101237.35
2023-01-10T20:56:19.746Z,101255.82
2023-01-10T21:01:34.556Z,101270.38
2023-01-10T21:04:06.864Z,101272.86
2023-01-10T21:07:25.797Z,101267.19
2023-01-10T21:09:53.142Z,101278.83
2023-01-10T21:12:28.749Z,101287.31
2023-01-10T21:15:01.797Z,101298.58
2023-01-10T21:20:13.879Z,101309.16
2023-01-10T21:22:42.344Z,101316.52
2023-01-10T21:25:10.299Z,101320.23
2023-01-10T21:27:37.774Z,101313.98
2023-01-10T21:30:06.472Z,101318.46
2023-01-10T21:32:34.310Z,101325.36
2023-01-10T21:37:46.940Z,101333.36
2023-01-10T21:43:25.901Z,101348.74
2023-01-10T21:46:19.064Z,101356.52
2023-01-10T21:48:49.115Z,101372.11
2023-01-10T21:51:19.211Z,101373.19
2023-01-10T21:53:50.608Z,101382.73
2023-01-10T21:56:27.284Z,101386.24
2023-01-10T21:59:00.468Z,101392.21
2023-01-10T22:01:28.256Z,101403.59
2023-01-10T22:03:59.201Z,101406.48
2023-01-10T22:06:27.177Z,101390.06
2023-01-10T22:08:55.605Z,101387.08
2023-01-10T22:11:22.527Z,101389.59
2023-01-10T22:14:15.304Z,101403.87
2023-01-10T22:16:42.850Z,101402.33
2023-01-10T22:25:37.254Z,101402.30
2023-01-10T22:28:05.344Z,101405.44
2023-01-10T22:30:32.754Z,101410.01
2023-01-10T22:33:00.156Z,101418.25
2023-01-10T22:35:28.307Z,101414.55
2023-01-10T22:38:01.284Z,101409.52
2023-01-10T22:43:53.452Z,101408.87
2023-01-10T22:52:22.218Z,101430.72
2023-01-10T22:54:49.757Z,101434.48
2023-01-10T22:57:47.193Z,101439.52
